11:15
Airports
History
Links
Donate
Help keep this website running!
PayPal
Bitcoin
This page is community maintained. The information is intended for PC simulator navigation or reference.
Always use approved charts for navigation.
VA2B
MEERUT SW
MEERUT SW (VA2B)
Meerut, Uttar Pradesh, India (250103)
(U)
Lat/Lng:28° 54' 17.7" N / 77° 40' 38.33" E
28.904917 / 77.677315
Elevation:732'ft / 223mMSL
ID / ICAO:VA2B
Runways:1
Longest:11-29
Asphalt 1,561m / 5,122ft
Nearby Weather02:30 GMT 2017-12-15
Nearby weather at VIDD, SAFDARJUNG located 36.1 nautical miles from VA2B
Altimeter: 30.12
Visibility: 0.4 statute miles
Wind: 2 knots (from 300°)
Temp: 8°c / 46°f
Humidity: 100.0%

METAR: VIDD 150230Z 30002KT 0600 MIFG NSC 08/08 Q1020 NOSIG

(Powered by phpweather)
Nearby VORs <50NM
Nearby NDBs
Runway 11 / 29
Dimensions:1561.1 x 22.9m 5122' x 75'ft
Surface:Asphalt
Runway 11 [A]Runway 29 [B]
Heading:111°TH 291°TH
Lat:
Lng:
28° 54' 26.94"N
77° 40' 11.49"E
28° 54' 8.46"N
77° 41' 5.18"E
User Notes and Comments
28° 54' 17.7" N / 77° 40' 38.33" E
Distance To
Airport ID:
Nearby Airports
(U) HINDON 23.6 NM
VIDX SW 234°
(C) SAFDARJUNG 36.1 NM
VIDD ( WX ) SW 232°
(C) INDIRA GANDHI INTL 42.0 NM
VIDP ( WX ) SW 235°
(U) KARNAL 67.9 NM
VI40 NW 325°
(U) SARSAWA 76.8 NM
VISP NNW 348°
(U) BHIWANI 90.8 NM
VIBW W 267°
(C) DEHRADUN 93.8 NM
VIDN NNE 18°
VFR Chart
Flight Planning at SkyVector.com